Time;durP1;ratioP1;P1;durP2;ratioP2;P2;SDS_P1;SDS_P2;PMS_P1;PMS_P2;Temp;Humidity;BMP_temperature;BMP_pressure;BME280_temperature;BME280_humidity;BME280_pressure;Samples;Min_cycle;Max_cycle;Signal;HPM_P1;HPM_P2
2022/01/15 00:00:35;;;;;;;46.97;23.45;;;;;;;;;;5011899;28;20024;-69
2022/01/15 00:03:01;;;;;;;32.28;17.25;;;;;;;;;;5030476;28;20041;-68
2022/01/15 00:05:27;;;;;;;47.17;22.90;;;;;;;;;;5030636;28;20021;-70
2022/01/15 00:07:53;;;;;;;38.30;21.02;;;;;;;;;;5030595;28;20403;-70
2022/01/15 00:10:21;;;;;;;41.35;21.80;;;;;;;;;;5030651;28;20029;-71
2022/01/15 00:12:47;;;;;;;39.83;21.58;;;;;;;;;;5031052;28;20372;-69
2022/01/15 00:15:20;;;;;;;50.08;25.05;;;;;;;;;;5032061;28;20502;-69
2022/01/15 00:17:56;;;;;;;38.70;21.73;;;;;;;;;;5031560;28;20039;-68
2022/01/15 00:20:23;;;;;;;41.75;22.75;;;;;;;;;;5031696;28;20112;-69
2022/01/15 00:22:50;;;;;;;38.53;22.05;;;;;;;;;;5031114;28;20387;-70
2022/01/15 00:25:17;;;;;;;41.08;21.95;;;;;;;;;;5031291;28;20026;-69
2022/01/15 00:27:43;;;;;;;49.78;23.92;;;;;;;;;;5031187;28;20063;-70
2022/01/15 00:30:10;;;;;;;39.53;22.15;;;;;;;;;;5031393;28;20044;-69
2022/01/15 00:32:36;;;;;;;46.63;25.70;;;;;;;;;;5031101;28;20033;-69
2022/01/15 00:35:02;;;;;;;40.20;21.80;;;;;;;;;;5031071;28;20441;-69
2022/01/15 00:37:32;;;;;;;40.17;21.05;;;;;;;;;;5031219;28;20026;-69
2022/01/15 00:39:59;;;;;;;47.17;24.90;;;;;;;;;;5016741;28;20033;-70
2022/01/15 00:42:25;;;;;;;36.53;20.88;;;;;;;;;;5034829;28;20034;-69
2022/01/15 00:44:51;;;;;;;39.05;21.20;;;;;;;;;;5016751;28;20479;-69
2022/01/15 00:47:17;;;;;;;50.05;25.33;;;;;;;;;;5023209;28;20084;-68
2022/01/15 00:49:43;;;;;;;38.95;21.30;;;;;;;;;;4997289;28;20404;-68
2022/01/15 00:52:09;;;;;;;42.67;22.40;;;;;;;;;;5014556;28;20025;-67
2022/01/15 00:54:35;;;;;;;38.38;21.13;;;;;;;;;;5014243;28;20121;-69
2022/01/15 00:57:01;;;;;;;48.58;24.02;;;;;;;;;;5014672;28;20113;-70
2022/01/15 00:59:27;;;;;;;48.28;23.15;;;;;;;;;;5014441;28;20024;-68
2022/01/15 01:01:53;;;;;;;44.28;24.00;;;;;;;;;;5014727;28;20030;-68
2022/01/15 01:04:20;;;;;;;40.67;22.23;;;;;;;;;;5014411;28;20033;-69
2022/01/15 01:06:46;;;;;;;41.08;22.65;;;;;;;;;;5014945;28;20034;-70
2022/01/15 01:09:12;;;;;;;44.40;23.70;;;;;;;;;;4997452;28;20080;-69
2022/01/15 01:11:54;;;;;;;44.15;22.98;;;;;;;;;;5017030;28;20364;-70
2022/01/15 01:20:09;;;;;;;37.83;22.67;;;;;;;;;;5014858;28;20061;-69
2022/01/15 01:22:54;;;;;;;45.20;22.85;;;;;;;;;;5014145;28;20032;-68
2022/01/15 01:25:22;;;;;;;41.83;22.25;;;;;;;;;;5014085;28;20033;-69
2022/01/15 01:27:52;;;;;;;37.45;21.73;;;;;;;;;;5014225;28;20029;-70
2022/01/15 01:32:50;;;;;;;44.95;22.10;;;;;;;;;;5013937;28;20522;-69
2022/01/15 01:35:31;;;;;;;39.45;20.70;;;;;;;;;;5014161;28;20419;-68
2022/01/15 01:38:05;;;;;;;35.85;20.27;;;;;;;;;;4996437;28;20030;-69
2022/01/15 01:40:38;;;;;;;38.50;19.95;;;;;;;;;;5014093;28;20054;-69
2022/01/15 01:43:26;;;;;;;33.88;20.67;;;;;;;;;;5013825;28;20101;-68
2022/01/15 01:46:11;;;;;;;39.97;20.55;;;;;;;;;;5013598;28;20056;-68
2022/01/15 01:48:36;;;;;;;37.63;21.38;;;;;;;;;;5013621;28;20030;-68
2022/01/15 01:51:03;;;;;;;36.42;19.90;;;;;;;;;;5013893;28;20057;-68
2022/01/15 01:53:29;;;;;;;39.30;20.08;;;;;;;;;;5013859;28;20029;-69
2022/01/15 01:55:55;;;;;;;41.58;20.65;;;;;;;;;;5014014;28;20029;-70
2022/01/15 01:58:20;;;;;;;42.30;21.45;;;;;;;;;;5013908;28;20037;-68
2022/01/15 02:00:46;;;;;;;40.50;20.17;;;;;;;;;;5013930;28;20030;-70
2022/01/15 02:03:12;;;;;;;37.13;20.88;;;;;;;;;;5013541;28;20050;-69
2022/01/15 02:05:41;;;;;;;37.47;20.50;;;;;;;;;;5013470;28;20030;-70
2022/01/15 02:08:07;;;;;;;35.85;19.98;;;;;;;;;;5013573;28;20036;-69
2022/01/15 02:10:34;;;;;;;36.33;19.92;;;;;;;;;;5013190;28;20022;-69
2022/01/15 02:13:01;;;;;;;38.53;20.27;;;;;;;;;;4995409;28;20030;-70
2022/01/15 02:15:27;;;;;;;44.10;20.63;;;;;;;;;;5013412;28;20033;-69
2022/01/15 02:17:54;;;;;;;34.72;19.80;;;;;;;;;;5013489;28;20033;-69
2022/01/15 02:25:43;;;;;;;34.55;18.35;;;;;;;;;;5013217;28;20052;-69
2022/01/15 02:28:09;;;;;;;31.92;18.30;;;;;;;;;;5013362;28;20049;-71
2022/01/15 02:30:35;;;;;;;35.15;18.08;;;;;;;;;;4995407;28;20033;-69
2022/01/15 02:33:01;;;;;;;29.38;16.67;;;;;;;;;;5012925;28;20043;-68
2022/01/15 02:35:28;;;;;;;31.63;17.13;;;;;;;;;;5013108;28;20094;-68
2022/01/15 02:37:54;;;;;;;30.02;16.67;;;;;;;;;;5012754;28;20466;-69
2022/01/15 02:40:20;;;;;;;33.97;18.60;;;;;;;;;;5012642;28;20030;-69
2022/01/15 02:42:46;;;;;;;31.75;15.52;;;;;;;;;;5012442;28;20036;-68
2022/01/15 02:45:19;;;;;;;28.15;16.10;;;;;;;;;;5012405;28;20444;-70
2022/01/15 02:48:00;;;;;;;27.90;14.55;;;;;;;;;;5027779;28;20025;-69
2022/01/15 02:50:26;;;;;;;29.60;14.93;;;;;;;;;;5032567;28;20105;-69
2022/01/15 02:52:52;;;;;;;30.23;16.20;;;;;;;;;;5031975;28;20049;-69
2022/01/15 02:55:18;;;;;;;29.92;14.50;;;;;;;;;;5032088;28;20483;-68
2022/01/15 02:57:44;;;;;;;31.13;14.68;;;;;;;;;;5031910;28;20084;-69
2022/01/15 03:00:11;;;;;;;32.00;15.07;;;;;;;;;;5032003;28;20471;-69
2022/01/15 03:02:37;;;;;;;31.27;14.05;;;;;;;;;;5031610;28;20041;-69
2022/01/15 03:05:03;;;;;;;34.38;15.70;;;;;;;;;;5032036;28;20116;-69
2022/01/15 03:07:29;;;;;;;28.63;14.68;;;;;;;;;;5032112;28;20415;-69
2022/01/15 03:09:55;;;;;;;26.42;14.00;;;;;;;;;;5031945;28;20022;-70
2022/01/15 03:12:21;;;;;;;31.55;15.55;;;;;;;;;;5032167;28;20120;-69
2022/01/15 03:14:48;;;;;;;32.00;15.60;;;;;;;;;;5031912;28;20022;-71
2022/01/15 03:17:14;;;;;;;36.53;15.75;;;;;;;;;;5032146;28;20029;-69
2022/01/15 03:19:40;;;;;;;40.60;17.17;;;;;;;;;;5031902;28;20025;-68
2022/01/15 03:22:06;;;;;;;33.72;14.70;;;;;;;;;;5031815;28;20022;-69
2022/01/15 03:24:32;;;;;;;29.55;14.18;;;;;;;;;;5031474;28;20071;-69
2022/01/15 03:26:58;;;;;;;30.05;13.82;;;;;;;;;;5014296;28;20045;-69
2022/01/15 03:29:24;;;;;;;27.05;13.32;;;;;;;;;;5031947;28;20026;-69
2022/01/15 03:31:50;;;;;;;29.35;14.55;;;;;;;;;;5031614;28;20433;-69
2022/01/15 03:34:16;;;;;;;30.98;13.50;;;;;;;;;;5031467;28;20034;-69
2022/01/15 03:36:42;;;;;;;32.28;12.75;;;;;;;;;;5031819;28;20152;-69
2022/01/15 03:39:08;;;;;;;21.40;11.43;;;;;;;;;;5014194;28;20021;-69
2022/01/15 03:41:34;;;;;;;21.13;11.20;;;;;;;;;;5031733;28;20025;-71
2022/01/15 03:44:00;;;;;;;23.50;11.55;;;;;;;;;;5031235;28;20040;-70
2022/01/15 03:46:26;;;;;;;25.10;12.07;;;;;;;;;;5031649;28;20089;-68
2022/01/15 03:48:53;;;;;;;29.20;12.52;;;;;;;;;;5031666;28;20028;-71
2022/01/15 03:51:19;;;;;;;24.60;11.75;;;;;;;;;;5031602;28;20018;-69
2022/01/15 03:53:45;;;;;;;26.73;12.95;;;;;;;;;;5029961;28;20507;-69
2022/01/15 03:56:11;;;;;;;23.15;9.75;;;;;;;;;;5030586;28;20030;-69
2022/01/15 03:58:37;;;;;;;20.02;9.43;;;;;;;;;;5031657;28;20529;-66
2022/01/15 04:01:03;;;;;;;25.48;9.80;;;;;;;;;;5031738;28;20030;-69
2022/01/15 04:03:29;;;;;;;29.00;12.80;;;;;;;;;;5030053;28;20444;-69
2022/01/15 04:05:55;;;;;;;19.70;8.05;;;;;;;;;;5031418;28;20029;-69
2022/01/15 04:08:21;;;;;;;16.70;7.70;;;;;;;;;;5031468;28;20030;-69
2022/01/15 04:10:47;;;;;;;22.10;9.63;;;;;;;;;;5031475;28;20044;-71
2022/01/15 04:13:15;;;;;;;21.52;8.40;;;;;;;;;;5032384;28;20413;-69
2022/01/15 04:15:41;;;;;;;24.35;7.97;;;;;;;;;;5035463;28;20025;-69
2022/01/15 04:18:08;;;;;;;22.50;8.18;;;;;;;;;;5035203;28;20079;-70
2022/01/15 04:20:34;;;;;;;21.73;7.43;;;;;;;;;;5035339;28;20399;-69
2022/01/15 04:23:00;;;;;;;21.48;6.55;;;;;;;;;;5034772;28;20021;-67
2022/01/15 04:25:26;;;;;;;18.38;6.78;;;;;;;;;;5034783;28;20029;-68
2022/01/15 04:27:56;;;;;;;21.67;7.55;;;;;;;;;;5033902;28;20033;-68
2022/01/15 04:30:24;;;;;;;22.75;7.32;;;;;;;;;;5034967;28;20495;-68
2022/01/15 04:32:50;;;;;;;25.27;8.45;;;;;;;;;;5034669;28;20052;-68
2022/01/15 04:35:16;;;;;;;19.35;7.57;;;;;;;;;;5035015;28;20100;-69
2022/01/15 04:37:46;;;;;;;27.90;8.98;;;;;;;;;;5034505;28;20475;-69
2022/01/15 04:40:12;;;;;;;26.50;7.47;;;;;;;;;;5035095;28;20028;-68
2022/01/15 04:42:38;;;;;;;16.50;6.90;;;;;;;;;;5034639;28;20026;-67
2022/01/15 04:45:07;;;;;;;24.70;8.05;;;;;;;;;;5034532;28;20021;-70
2022/01/15 04:47:33;;;;;;;20.23;8.30;;;;;;;;;;5021310;28;20018;-68
2022/01/15 04:49:59;;;;;;;23.70;8.60;;;;;;;;;;5014828;28;20539;-68
2022/01/15 04:52:25;;;;;;;19.92;8.57;;;;;;;;;;4997061;28;20021;-69
2022/01/15 04:54:51;;;;;;;23.25;9.07;;;;;;;;;;5014821;28;20068;-70
2022/01/15 04:57:17;;;;;;;28.77;9.23;;;;;;;;;;5014905;28;20026;-70
2022/01/15 04:59:43;;;;;;;32.55;10.45;;;;;;;;;;5015406;28;20018;-71
2022/01/15 05:02:09;;;;;;;24.02;9.88;;;;;;;;;;5016258;28;20099;-71
2022/01/15 05:04:35;;;;;;;25.17;9.57;;;;;;;;;;5016200;28;20485;-69
2022/01/15 05:07:01;;;;;;;30.15;11.35;;;;;;;;;;5016100;28;20447;-69
2022/01/15 05:09:27;;;;;;;23.60;9.63;;;;;;;;;;5016027;28;20033;-69
2022/01/15 05:12:03;;;;;;;27.63;10.32;;;;;;;;;;5015968;28;20468;-68
2022/01/15 05:14:30;;;;;;;26.55;9.48;;;;;;;;;;5015986;28;20028;-68
2022/01/15 05:16:56;;;;;;;25.10;10.77;;;;;;;;;;5014910;28;20465;-69
2022/01/15 05:19:22;;;;;;;27.38;12.23;;;;;;;;;;5016390;28;20025;-69
2022/01/15 05:21:48;;;;;;;25.83;9.70;;;;;;;;;;4997993;28;20554;-69
2022/01/15 05:24:14;;;;;;;24.08;9.63;;;;;;;;;;5013832;28;20058;-68
2022/01/15 05:26:40;;;;;;;30.65;10.23;;;;;;;;;;5014413;28;20120;-69
2022/01/15 05:29:06;;;;;;;31.23;10.02;;;;;;;;;;5014165;28;20034;-68
2022/01/15 05:34:01;;;;;;;33.22;10.50;;;;;;;;;;5069542;22;20411;-74
2022/01/15 05:36:26;;;;;;;33.92;11.13;;;;;;;;;;5035037;28;20029;-73
2022/01/15 05:38:52;;;;;;;32.05;10.82;;;;;;;;;;5054291;28;20040;-74
2022/01/15 05:41:18;;;;;;;25.67;9.80;;;;;;;;;;5036067;28;20085;-73
2022/01/15 05:43:44;;;;;;;24.92;9.93;;;;;;;;;;5053319;28;20064;-73
2022/01/15 05:46:10;;;;;;;28.27;9.57;;;;;;;;;;5053607;28;20024;-73
2022/01/15 05:48:36;;;;;;;33.63;11.82;;;;;;;;;;5035607;28;20033;-73
2022/01/15 05:51:02;;;;;;;30.63;9.90;;;;;;;;;;5035697;28;20386;-73
2022/01/15 05:53:28;;;;;;;31.33;10.60;;;;;;;;;;5053335;28;20516;-75
2022/01/15 05:55:54;;;;;;;29.17;10.25;;;;;;;;;;5053748;28;20024;-73
2022/01/15 05:58:20;;;;;;;27.80;9.07;;;;;;;;;;5053378;28;20087;-74
2022/01/15 06:00:46;;;;;;;25.02;9.38;;;;;;;;;;5053692;28;20471;-74
2022/01/15 06:03:12;;;;;;;25.90;10.15;;;;;;;;;;5053677;28;20017;-74
2022/01/15 06:05:38;;;;;;;30.48;10.63;;;;;;;;;;5053812;28;20483;-74
2022/01/15 06:08:04;;;;;;;35.20;10.77;;;;;;;;;;5053509;28;20065;-73
2022/01/15 06:10:30;;;;;;;32.40;10.13;;;;;;;;;;5053610;28;20025;-74
2022/01/15 06:12:56;;;;;;;30.20;9.65;;;;;;;;;;5053617;28;20090;-74
2022/01/15 06:15:22;;;;;;;26.27;9.15;;;;;;;;;;5053650;28;20021;-74
2022/01/15 06:17:48;;;;;;;30.90;10.68;;;;;;;;;;5053841;28;20029;-77
2022/01/15 06:20:15;;;;;;;31.98;10.70;;;;;;;;;;5053544;28;20025;-75
2022/01/15 06:22:41;;;;;;;35.55;11.40;;;;;;;;;;5036016;28;20106;-72
2022/01/15 06:25:07;;;;;;;33.67;11.32;;;;;;;;;;5053031;28;20021;-73
2022/01/15 06:27:33;;;;;;;43.40;11.55;;;;;;;;;;5053077;28;20029;-73
2022/01/15 06:30:00;;;;;;;36.55;13.65;;;;;;;;;;5053553;28;20032;-72
2022/01/15 06:32:27;;;;;;;36.40;13.40;;;;;;;;;;5052373;28;20521;-73
2022/01/15 06:34:53;;;;;;;34.63;11.98;;;;;;;;;;5052491;28;20376;-75
2022/01/15 06:37:19;;;;;;;34.85;12.45;;;;;;;;;;5051407;28;20044;-75
2022/01/15 06:39:45;;;;;;;45.65;13.30;;;;;;;;;;5054297;28;20095;-74
2022/01/15 06:42:11;;;;;;;41.85;14.45;;;;;;;;;;5054154;28;20089;-74
2022/01/15 06:44:37;;;;;;;44.17;16.05;;;;;;;;;;5054128;28;20511;-73
2022/01/15 06:47:03;;;;;;;44.22;15.15;;;;;;;;;;5053282;28;20104;-73
2022/01/15 06:49:29;;;;;;;41.95;14.73;;;;;;;;;;5052375;28;20025;-73
2022/01/15 06:51:55;;;;;;;41.83;14.85;;;;;;;;;;5052244;28;20033;-73
2022/01/15 06:54:21;;;;;;;33.10;14.80;;;;;;;;;;5051941;28;20036;-73
2022/01/15 06:56:47;;;;;;;38.63;13.45;;;;;;;;;;5052672;28;20108;-73
2022/01/15 06:59:13;;;;;;;35.53;13.68;;;;;;;;;;5053222;28;20024;-73
2022/01/15 07:01:39;;;;;;;38.28;13.73;;;;;;;;;;5052620;28;20506;-73
2022/01/15 07:04:05;;;;;;;32.03;12.43;;;;;;;;;;5051989;28;20478;-74
2022/01/15 07:06:31;;;;;;;42.17;13.43;;;;;;;;;;5052405;28;20052;-73
2022/01/15 07:08:57;;;;;;;33.75;13.10;;;;;;;;;;5052005;28;20061;-73
2022/01/15 07:11:23;;;;;;;40.80;14.63;;;;;;;;;;5052469;28;20052;-73
2022/01/15 07:13:49;;;;;;;38.47;13.63;;;;;;;;;;5034554;28;20025;-73
2022/01/15 07:16:15;;;;;;;32.92;13.10;;;;;;;;;;5052727;28;20532;-71
2022/01/15 07:18:41;;;;;;;34.25;13.88;;;;;;;;;;5052161;28;20029;-74
2022/01/15 07:21:07;;;;;;;31.98;13.48;;;;;;;;;;5052571;28;20482;-75
2022/01/15 07:23:33;;;;;;;35.92;12.48;;;;;;;;;;5051820;28;20399;-74
2022/01/15 07:25:59;;;;;;;36.65;12.90;;;;;;;;;;5052007;28;20032;-75
2022/01/15 07:28:27;;;;;;;31.50;12.50;;;;;;;;;;5051263;28;20104;-73
2022/01/15 07:30:53;;;;;;;26.70;11.25;;;;;;;;;;5049593;28;20021;-74
2022/01/15 07:33:19;;;;;;;36.58;11.93;;;;;;;;;;5041408;28;20488;-75
2022/01/15 07:35:46;;;;;;;29.92;11.30;;;;;;;;;;5042750;28;20080;-73
2022/01/15 07:38:13;;;;;;;24.77;10.38;;;;;;;;;;5031982;28;20072;-74
2022/01/15 07:40:39;;;;;;;34.45;11.65;;;;;;;;;;5046669;28;20029;-73
2022/01/15 07:43:05;;;;;;;32.00;11.30;;;;;;;;;;5051756;28;20375;-71
2022/01/15 07:45:31;;;;;;;21.85;10.75;;;;;;;;;;5034131;28;20024;-72
2022/01/15 07:47:57;;;;;;;30.77;10.88;;;;;;;;;;5054181;28;20028;-74
2022/01/15 07:50:24;;;;;;;33.33;10.98;;;;;;;;;;5056529;28;20025;-74
2022/01/15 07:52:53;;;;;;;34.63;11.27;;;;;;;;;;5037060;28;20036;-78
2022/01/15 07:55:20;;;;;;;27.42;11.32;;;;;;;;;;5056423;28;20029;-73
2022/01/15 07:57:46;;;;;;;33.28;14.27;;;;;;;;;;5055760;28;20588;-73
2022/01/15 08:00:13;;;;;;;27.75;11.80;;;;;;;;;;5058250;28;20049;-72
2022/01/15 08:02:39;;;;;;;29.33;12.07;;;;;;;;;;5056118;28;20123;-72
2022/01/15 08:05:05;;;;;;;26.98;10.57;;;;;;;;;;5051232;28;20104;-73
2022/01/15 08:07:31;;;;;;;30.38;10.00;;;;;;;;;;5035123;28;20483;-71
2022/01/15 08:09:57;;;;;;;25.52;10.85;;;;;;;;;;5036340;28;20033;-72
2022/01/15 08:12:23;;;;;;;28.80;11.38;;;;;;;;;;5035479;28;20095;-72
2022/01/15 08:14:50;;;;;;;25.15;11.32;;;;;;;;;;5034616;28;20025;-72
2022/01/15 08:17:16;;;;;;;30.98;11.38;;;;;;;;;;5017427;28;20025;-71
2022/01/15 08:19:42;;;;;;;32.70;10.35;;;;;;;;;;5016716;28;20028;-71
2022/01/15 08:22:10;;;;;;;31.15;9.30;;;;;;;;;;5044285;28;20032;-73
2022/01/15 08:24:36;;;;;;;35.05;9.27;;;;;;;;;;5042100;28;20017;-72
2022/01/15 08:27:02;;;;;;;26.50;9.27;;;;;;;;;;5055278;28;20394;-71
2022/01/15 08:29:28;;;;;;;22.98;7.93;;;;;;;;;;5054642;28;20144;-71
2022/01/15 08:31:54;;;;;;;26.42;8.10;;;;;;;;;;5054128;28;20028;-72
2022/01/15 08:34:20;;;;;;;19.50;7.40;;;;;;;;;;5054230;28;20025;-72
2022/01/15 08:36:46;;;;;;;26.77;7.57;;;;;;;;;;5054248;28;20021;-74
2022/01/15 08:39:12;;;;;;;21.13;6.00;;;;;;;;;;5054124;28;20095;-75
2022/01/15 08:41:38;;;;;;;32.15;7.05;;;;;;;;;;5055107;28;20371;-74
2022/01/15 08:44:06;;;;;;;27.67;6.63;;;;;;;;;;5037200;28;20028;-72
2022/01/15 08:46:32;;;;;;;25.73;7.18;;;;;;;;;;5037675;28;20028;-72
2022/01/15 08:48:57;;;;;;;25.75;6.38;;;;;;;;;;5055698;28;20025;-73
2022/01/15 08:51:24;;;;;;;34.92;7.85;;;;;;;;;;5055438;28;20027;-74
2022/01/15 08:53:49;;;;;;;16.90;6.10;;;;;;;;;;5054941;28;20021;-75
2022/01/15 08:56:17;;;;;;;28.60;6.63;;;;;;;;;;5040133;28;20078;-74
2022/01/15 08:58:43;;;;;;;23.20;6.00;;;;;;;;;;5034786;28;20030;-75
2022/01/15 09:01:13;;;;;;;19.23;5.78;;;;;;;;;;5038154;28;20026;-75
2022/01/15 09:03:39;;;;;;;20.48;5.25;;;;;;;;;;5035502;28;20108;-75
2022/01/15 09:06:05;;;;;;;22.85;5.15;;;;;;;;;;5020407;28;20021;-76
2022/01/15 09:08:31;;;;;;;21.17;5.32;;;;;;;;;;5046642;28;20040;-74
2022/01/15 09:10:57;;;;;;;19.65;5.20;;;;;;;;;;5044174;28;20077;-77
2022/01/15 09:13:27;;;;;;;25.33;4.63;;;;;;;;;;5041330;28;20034;-75
2022/01/15 09:15:53;;;;;;;24.52;5.53;;;;;;;;;;5042548;28;20022;-72
2022/01/15 09:18:19;;;;;;;20.98;5.70;;;;;;;;;;5037675;28;20162;-73
2022/01/15 09:20:46;;;;;;;28.10;6.15;;;;;;;;;;5034770;28;20026;-73
2022/01/15 09:23:12;;;;;;;31.75;5.88;;;;;;;;;;5034327;28;20027;-73
2022/01/15 09:25:38;;;;;;;26.52;5.85;;;;;;;;;;5034927;28;20108;-73
2022/01/15 09:30:50;;;;;;;26.27;5.25;;;;;;;;;;5044115;28;20055;-73
2022/01/15 09:33:16;;;;;;;28.85;5.88;;;;;;;;;;5056965;28;20026;-74
2022/01/15 09:35:42;;;;;;;17.52;5.45;;;;;;;;;;5055561;28;20092;-74
2022/01/15 09:38:08;;;;;;;19.50;5.38;;;;;;;;;;5049429;28;20029;-73
2022/01/15 09:40:35;;;;;;;25.42;7.35;;;;;;;;;;5047893;28;20025;-73
2022/01/15 09:43:01;;;;;;;21.98;5.53;;;;;;;;;;5046505;28;20030;-73
2022/01/15 09:45:29;;;;;;;23.73;5.80;;;;;;;;;;5044697;28;20022;-72
2022/01/15 09:47:57;;;;;;;21.95;5.88;;;;;;;;;;5046794;28;20073;-74
2022/01/15 09:50:25;;;;;;;27.83;6.43;;;;;;;;;;5051265;28;20030;-72
2022/01/15 09:52:51;;;;;;;29.30;5.80;;;;;;;;;;5071018;28;20050;-75
2022/01/15 09:55:17;;;;;;;19.70;5.63;;;;;;;;;;5075002;28;20049;-74
2022/01/15 09:57:43;;;;;;;23.52;5.78;;;;;;;;;;5073919;28;20029;-74
2022/01/15 10:00:14;;;;;;;23.23;4.80;;;;;;;;;;5070436;28;20025;-75
2022/01/15 10:02:41;;;;;;;34.60;7.90;;;;;;;;;;5067347;28;20029;-74
2022/01/15 10:05:07;;;;;;;26.73;5.35;;;;;;;;;;5058575;28;20028;-75
2022/01/15 10:07:33;;;;;;;22.25;5.45;;;;;;;;;;5071656;28;20033;-77
2022/01/15 10:10:16;;;;;;;24.67;5.32;;;;;;;;;;5065594;28;20084;-77
2022/01/15 10:12:43;;;;;;;22.17;5.97;;;;;;;;;;5065375;28;20025;-74
2022/01/15 10:15:10;;;;;;;19.30;5.50;;;;;;;;;;5076528;28;20046;-77
2022/01/15 10:17:37;;;;;;;24.98;4.95;;;;;;;;;;5076345;28;20045;-75
2022/01/15 10:20:08;;;;;;;29.33;6.20;;;;;;;;;;5075885;28;20009;-78
2022/01/15 10:22:34;;;;;;;23.02;4.55;;;;;;;;;;5077833;28;20017;-75
2022/01/15 10:25:10;;;;;;;21.52;4.97;;;;;;;;;;5073739;28;20025;-79
2022/01/15 10:27:40;;;;;;;20.55;4.10;;;;;;;;;;5075400;28;20013;-75
2022/01/15 10:30:06;;;;;;;21.65;4.90;;;;;;;;;;5075017;28;20327;-75
2022/01/15 10:32:33;;;;;;;31.42;5.22;;;;;;;;;;5073440;28;20036;-74
2022/01/15 10:35:00;;;;;;;24.27;4.78;;;;;;;;;;5074215;28;20084;-73
2022/01/15 10:37:34;;;;;;;20.38;5.25;;;;;;;;;;5071685;28;20070;-78
2022/01/15 10:40:03;;;;;;;20.25;4.38;;;;;;;;;;5074491;28;20029;-74
2022/01/15 10:42:29;;;;;;;23.85;5.20;;;;;;;;;;5070888;28;20021;-75
2022/01/15 10:44:57;;;;;;;18.95;5.10;;;;;;;;;;5062171;28;20029;-74
2022/01/15 10:47:24;;;;;;;26.40;5.10;;;;;;;;;;5054629;28;20236;-74
2022/01/15 10:49:50;;;;;;;23.40;5.25;;;;;;;;;;5054805;28;20386;-74
2022/01/15 10:52:17;;;;;;;16.35;4.25;;;;;;;;;;5054241;28;20024;-75
2022/01/15 10:54:51;;;;;;;22.42;4.60;;;;;;;;;;5055223;28;20025;-75
2022/01/15 10:57:19;;;;;;;30.33;4.95;;;;;;;;;;5037558;28;20116;-73
2022/01/15 11:00:03;;;;;;;21.05;4.43;;;;;;;;;;5061294;28;20094;-74
2022/01/15 11:02:29;;;;;;;22.38;4.07;;;;;;;;;;5064812;28;20013;-76
2022/01/15 11:04:56;;;;;;;17.85;5.35;;;;;;;;;;5066616;28;20025;-76
2022/01/15 11:07:22;;;;;;;31.70;5.47;;;;;;;;;;5068859;28;20075;-77
2022/01/15 11:09:50;;;;;;;18.05;4.75;;;;;;;;;;5075407;28;20025;-75
2022/01/15 11:12:17;;;;;;;16.95;4.75;;;;;;;;;;5075052;28;20055;-76
2022/01/15 11:14:43;;;;;;;19.77;5.10;;;;;;;;;;5074093;28;20013;-77
2022/01/15 11:17:09;;;;;;;29.13;4.88;;;;;;;;;;5075824;28;20024;-76
2022/01/15 11:19:35;;;;;;;23.63;4.85;;;;;;;;;;5071183;28;20021;-73
2022/01/15 11:22:02;;;;;;;21.67;4.65;;;;;;;;;;5057622;28;20028;-75
2022/01/15 11:24:28;;;;;;;32.97;5.30;;;;;;;;;;5056463;28;20100;-75
2022/01/15 11:26:58;;;;;;;21.15;4.65;;;;;;;;;;5057040;28;20098;-75
2022/01/15 11:29:25;;;;;;;15.15;3.47;;;;;;;;;;5057450;28;20479;-75
2022/01/15 11:31:56;;;;;;;26.83;4.30;;;;;;;;;;5057165;28;20083;-75
2022/01/15 11:34:26;;;;;;;21.42;5.03;;;;;;;;;;5051742;22;20498;-77
2022/01/15 11:36:52;;;;;;;18.80;3.85;;;;;;;;;;5030497;28;20479;-76
2022/01/15 11:39:23;;;;;;;18.98;4.65;;;;;;;;;;5030898;28;20032;-76
2022/01/15 11:41:53;;;;;;;19.83;4.45;;;;;;;;;;5029742;28;20017;-76
2022/01/15 11:44:20;;;;;;;25.13;4.40;;;;;;;;;;5029491;28;20017;-75
2022/01/15 11:46:49;;;;;;;25.13;4.63;;;;;;;;;;5029483;28;20026;-76
2022/01/15 11:49:28;;;;;;;24.00;6.03;;;;;;;;;;5030523;28;20018;-76
2022/01/15 11:51:57;;;;;;;25.27;4.78;;;;;;;;;;5032220;28;20548;-76
2022/01/15 11:54:23;;;;;;;19.98;4.65;;;;;;;;;;5014301;28;20124;-76
2022/01/15 11:56:49;;;;;;;22.15;4.18;;;;;;;;;;5032158;28;20101;-76
2022/01/15 11:59:24;;;;;;;20.23;4.20;;;;;;;;;;5031155;28;20029;-75
2022/01/15 12:01:51;;;;;;;18.13;3.45;;;;;;;;;;5031997;28;20079;-76
2022/01/15 12:04:35;;;;;;;23.23;3.63;;;;;;;;;;5013684;28;20018;-76
2022/01/15 12:07:06;;;;;;;19.80;4.38;;;;;;;;;;5031889;28;20480;-77
2022/01/15 12:09:39;;;;;;;22.48;4.93;;;;;;;;;;5012664;28;20033;-75
2022/01/15 12:12:20;;;;;;;17.17;3.72;;;;;;;;;;5029843;28;20029;-73
2022/01/15 12:14:50;;;;;;;20.52;4.30;;;;;;;;;;5030847;28;20072;-75
2022/01/15 12:17:25;;;;;;;27.10;4.32;;;;;;;;;;5031573;28;20022;-76
2022/01/15 12:19:51;;;;;;;17.73;5.57;;;;;;;;;;5014163;28;20025;-75
2022/01/15 12:22:36;;;;;;;24.77;3.67;;;;;;;;;;5031831;28;20484;-76
2022/01/15 12:25:06;;;;;;;19.08;4.35;;;;;;;;;;5032123;28;20447;-75
2022/01/15 12:27:33;;;;;;;25.50;4.40;;;;;;;;;;5032301;28;20026;-76
2022/01/15 12:30:05;;;;;;;18.88;4.30;;;;;;;;;;5003501;28;20116;-74
2022/01/15 12:32:32;;;;;;;21.38;3.90;;;;;;;;;;5011988;28;20029;-74
2022/01/15 12:34:58;;;;;;;23.05;5.32;;;;;;;;;;5017012;28;20108;-75
2022/01/15 12:37:25;;;;;;;13.63;4.57;;;;;;;;;;5018585;28;20040;-75
2022/01/15 12:39:51;;;;;;;19.42;4.50;;;;;;;;;;5001194;28;20022;-75
2022/01/15 12:42:17;;;;;;;19.98;4.20;;;;;;;;;;4978085;28;20385;-75
2022/01/15 12:44:47;;;;;;;17.55;4.05;;;;;;;;;;4995711;28;20491;-76
2022/01/15 12:47:14;;;;;;;17.20;3.58;;;;;;;;;;4995350;28;20440;-76
2022/01/15 12:49:49;;;;;;;19.42;3.95;;;;;;;;;;4995118;28;20172;-75
2022/01/15 12:52:25;;;;;;;19.85;4.35;;;;;;;;;;4993688;28;20034;-76
2022/01/15 12:54:53;;;;;;;26.10;4.35;;;;;;;;;;4977232;28;20022;-76
2022/01/15 12:57:38;;;;;;;20.80;4.45;;;;;;;;;;4994383;28;20073;-76
2022/01/15 13:00:05;;;;;;;19.02;3.92;;;;;;;;;;4994390;28;20106;-76
2022/01/15 13:02:31;;;;;;;16.00;4.47;;;;;;;;;;5009521;28;20423;-76
2022/01/15 13:04:57;;;;;;;23.30;4.85;;;;;;;;;;5013580;28;20026;-76
2022/01/15 13:07:23;;;;;;;17.27;3.88;;;;;;;;;;5012841;28;20037;-76
2022/01/15 13:09:49;;;;;;;15.32;3.83;;;;;;;;;;5012843;28;20045;-76
2022/01/15 13:12:15;;;;;;;20.95;4.93;;;;;;;;;;4995100;28;20477;-76
2022/01/15 13:14:42;;;;;;;22.52;4.15;;;;;;;;;;5013112;28;20076;-76
2022/01/15 13:17:27;;;;;;;21.55;4.20;;;;;;;;;;5013018;28;20018;-76
2022/01/15 13:19:53;;;;;;;15.75;4.55;;;;;;;;;;5013703;28;20048;-77
2022/01/15 13:22:19;;;;;;;18.40;4.32;;;;;;;;;;5013294;28;20611;-74
2022/01/15 13:24:45;;;;;;;19.90;4.07;;;;;;;;;;5012315;28;20021;-76
2022/01/15 13:27:11;;;;;;;14.65;3.60;;;;;;;;;;5012890;28;20032;-75
2022/01/15 13:29:39;;;;;;;24.00;3.97;;;;;;;;;;5012831;28;20034;-75
2022/01/15 13:32:09;;;;;;;15.18;4.10;;;;;;;;;;4997043;28;20110;-76
2022/01/15 13:34:36;;;;;;;18.40;3.58;;;;;;;;;;5009422;28;20037;-76
2022/01/15 13:37:09;;;;;;;14.25;3.42;;;;;;;;;;5012482;28;20065;-75
2022/01/15 13:39:36;;;;;;;20.88;4.93;;;;;;;;;;4995279;28;20048;-76
2022/01/15 13:42:02;;;;;;;13.65;4.07;;;;;;;;;;5012775;28;20026;-75
2022/01/15 13:44:31;;;;;;;19.58;5.60;;;;;;;;;;5012120;28;20131;-75
2022/01/15 13:47:06;;;;;;;16.08;4.15;;;;;;;;;;5012718;28;20381;-76
2022/01/15 13:53:04;;;;;;;30.52;5.38;;;;;;;;;;5013404;28;20080;-76
2022/01/15 13:55:23;;;;;;;24.30;5.60;;;;;;;;;;5013914;28;20036;-74
2022/01/15 13:57:49;;;;;;;18.15;4.40;;;;;;;;;;4995553;28;20480;-75
2022/01/15 14:00:16;;;;;;;16.23;4.07;;;;;;;;;;5013349;28;20072;-75
2022/01/15 14:02:44;;;;;;;21.35;4.35;;;;;;;;;;5013104;28;20496;-74
2022/01/15 14:05:16;;;;;;;19.67;5.15;;;;;;;;;;5013360;28;20026;-75
2022/01/15 14:07:44;;;;;;;16.10;4.28;;;;;;;;;;5013193;28;20026;-74
2022/01/15 14:10:11;;;;;;;22.08;6.05;;;;;;;;;;5024518;28;20030;-75
2022/01/15 14:12:38;;;;;;;14.32;3.70;;;;;;;;;;5032874;28;20057;-75
2022/01/15 14:15:10;;;;;;;12.52;4.15;;;;;;;;;;5032771;28;20486;-73
2022/01/15 14:17:41;;;;;;;19.63;4.60;;;;;;;;;;5033367;28;20022;-76
2022/01/15 14:22:49;;;;;;;18.10;4.25;;;;;;;;;;5031975;28;20021;-71
2022/01/15 14:25:22;;;;;;;23.45;5.10;;;;;;;;;;5032608;28;20011;-73
2022/01/15 14:28:00;;;;;;;20.60;4.80;;;;;;;;;;5035650;28;20044;-74
2022/01/15 14:30:27;;;;;;;15.52;3.60;;;;;;;;;;5017572;28;20156;-73
2022/01/15 14:32:53;;;;;;;20.25;4.28;;;;;;;;;;4994537;28;20483;-75
2022/01/15 14:35:19;;;;;;;16.30;3.83;;;;;;;;;;4995385;28;20484;-77
2022/01/15 14:37:45;;;;;;;19.42;4.90;;;;;;;;;;5014568;28;20502;-74
2022/01/15 14:40:11;;;;;;;17.77;5.10;;;;;;;;;;5012523;28;20022;-71
2022/01/15 14:42:37;;;;;;;12.02;4.70;;;;;;;;;;5012580;28;20026;-74
2022/01/15 14:45:03;;;;;;;15.95;4.05;;;;;;;;;;5013689;28;20109;-74
2022/01/15 14:47:29;;;;;;;17.75;4.43;;;;;;;;;;5012964;28;20112;-75
2022/01/15 14:49:55;;;;;;;23.85;7.10;;;;;;;;;;5012426;28;20499;-74